sensor_id;sensor_type;location;lat;lon;timestamp;pressure;altitude;pressure_sealevel;temperature;humidity
57594;BME280;43423;46.510;6.686;2023-02-28T00:01:14;96501.38;;;0.01;66.57
57594;BME280;43423;46.510;6.686;2023-02-28T00:03:40;96498.34;;;-0.05;65.75
57594;BME280;43423;46.510;6.686;2023-02-28T00:06:07;96508.34;;;-0.02;66.15
57594;BME280;43423;46.510;6.686;2023-02-28T00:08:32;96504.94;;;-0.06;66.32
57594;BME280;43423;46.510;6.686;2023-02-28T00:11:11;96506.91;;;-0.10;66.80
57594;BME280;43423;46.510;6.686;2023-02-28T00:13:41;96499.22;;;-0.12;66.38
57594;BME280;43423;46.510;6.686;2023-02-28T00:16:10;96504.69;;;-0.15;66.65
57594;BME280;43423;46.510;6.686;2023-02-28T00:18:36;96508.19;;;-0.18;66.69
57594;BME280;43423;46.510;6.686;2023-02-28T00:21:02;96503.13;;;-0.16;65.86
57594;BME280;43423;46.510;6.686;2023-02-28T00:23:28;96508.22;;;-0.22;66.75
57594;BME280;43423;46.510;6.686;2023-02-28T00:25:54;96510.34;;;-0.06;66.24
57594;BME280;43423;46.510;6.686;2023-02-28T00:28:19;96504.94;;;-0.06;66.05
57594;BME280;43423;46.510;6.686;2023-02-28T00:30:45;96502.94;;;-0.02;66.77
57594;BME280;43423;46.510;6.686;2023-02-28T00:33:10;96509.34;;;-0.19;65.94
57594;BME280;43423;46.510;6.686;2023-02-28T00:35:36;96504.34;;;-0.21;66.45
57594;BME280;43423;46.510;6.686;2023-02-28T00:38:02;96503.69;;;-0.29;66.81
57594;BME280;43423;46.510;6.686;2023-02-28T00:40:28;96511.59;;;-0.14;66.50
57594;BME280;43423;46.510;6.686;2023-02-28T00:42:53;96508.53;;;-0.16;66.88
57594;BME280;43423;46.510;6.686;2023-02-28T00:45:19;96505.81;;;-0.16;66.45
57594;BME280;43423;46.510;6.686;2023-02-28T00:47:45;96511.69;;;-0.21;67.09
57594;BME280;43423;46.510;6.686;2023-02-28T00:50:12;96518.22;;;-0.19;67.15
57594;BME280;43423;46.510;6.686;2023-02-28T00:52:37;96503.25;;;-0.23;66.98
57594;BME280;43423;46.510;6.686;2023-02-28T00:55:04;96505.47;;;-0.18;66.98
57594;BME280;43423;46.510;6.686;2023-02-28T00:57:29;96505.38;;;-0.11;66.67
57594;BME280;43423;46.510;6.686;2023-02-28T00:59:55;96500.03;;;-0.15;66.80
57594;BME280;43423;46.510;6.686;2023-02-28T01:02:21;96504.34;;;-0.21;66.53
57594;BME280;43423;46.510;6.686;2023-02-28T01:04:48;96510.38;;;-0.10;66.78
57594;BME280;43423;46.510;6.686;2023-02-28T01:07:14;96506.09;;;-0.07;66.82
57594;BME280;43423;46.510;6.686;2023-02-28T01:09:40;96511.19;;;-0.13;66.68
57594;BME280;43423;46.510;6.686;2023-02-28T01:12:07;96506.56;;;-0.12;66.89
57594;BME280;43423;46.510;6.686;2023-02-28T01:14:34;96510.78;;;-0.11;66.96
57594;BME280;43423;46.510;6.686;2023-02-28T01:17:00;96495.06;;;-0.20;66.34
57594;BME280;43423;46.510;6.686;2023-02-28T01:19:26;96496.75;;;-0.30;67.25
57594;BME280;43423;46.510;6.686;2023-02-28T01:21:51;96504.03;;;-0.26;67.01
57594;BME280;43423;46.510;6.686;2023-02-28T01:24:17;96497.72;;;-0.16;66.93
57594;BME280;43423;46.510;6.686;2023-02-28T01:26:42;96489.41;;;-0.02;66.29
57594;BME280;43423;46.510;6.686;2023-02-28T01:29:08;96495.50;;;0.06;66.18
57594;BME280;43423;46.510;6.686;2023-02-28T01:31:33;96496.56;;;0.12;65.78
57594;BME280;43423;46.510;6.686;2023-02-28T01:33:59;96500.31;;;-0.09;66.70
57594;BME280;43423;46.510;6.686;2023-02-28T01:36:25;96505.88;;;0.07;66.52
57594;BME280;43423;46.510;6.686;2023-02-28T01:38:51;96501.22;;;0.11;65.86
57594;BME280;43423;46.510;6.686;2023-02-28T01:41:21;96500.28;;;-0.06;66.45
57594;BME280;43423;46.510;6.686;2023-02-28T01:46:13;96502.94;;;-0.02;65.56
57594;BME280;43423;46.510;6.686;2023-02-28T01:48:53;96506.81;;;-0.03;65.79
57594;BME280;43423;46.510;6.686;2023-02-28T01:51:24;96501.47;;;-0.07;66.77
57594;BME280;43423;46.510;6.686;2023-02-28T01:53:57;96508.44;;;-0.09;66.22
57594;BME280;43423;46.510;6.686;2023-02-28T01:56:26;96507.47;;;-0.22;66.75
57594;BME280;43423;46.510;6.686;2023-02-28T01:58:54;96504.84;;;-0.30;66.65
57594;BME280;43423;46.510;6.686;2023-02-28T02:01:21;96506.97;;;-0.44;67.43
57594;BME280;43423;46.510;6.686;2023-02-28T02:04:01;96509.91;;;-0.32;67.45
57594;BME280;43423;46.510;6.686;2023-02-28T02:06:33;96505.03;;;-0.44;67.54
57594;BME280;43423;46.510;6.686;2023-02-28T02:08:59;96501.66;;;-0.51;68.11
57594;BME280;43423;46.510;6.686;2023-02-28T02:11:25;96510.34;;;-0.37;66.74
57594;BME280;43423;46.510;6.686;2023-02-28T02:19:35;96496.00;;;-0.34;67.60
57594;BME280;43423;46.510;6.686;2023-02-28T02:24:42;96498.59;;;-0.23;66.66
57594;BME280;43423;46.510;6.686;2023-02-28T02:27:20;96499.63;;;-0.13;66.54
57594;BME280;43423;46.510;6.686;2023-02-28T02:38:08;96502.66;;;-0.08;66.57
57594;BME280;43423;46.510;6.686;2023-02-28T02:41:03;96505.16;;;-0.24;66.72
57594;BME280;43423;46.510;6.686;2023-02-28T02:43:34;96503.69;;;-0.29;67.03
57594;BME280;43423;46.510;6.686;2023-02-28T02:46:26;96496.88;;;-0.40;67.57
57594;BME280;43423;46.510;6.686;2023-02-28T02:48:56;96500.63;;;-0.31;67.81
57594;BME280;43423;46.510;6.686;2023-02-28T02:51:23;96501.31;;;-0.23;67.43
57594;BME280;43423;46.510;6.686;2023-02-28T02:53:53;96496.75;;;-0.30;67.31
57594;BME280;43423;46.510;6.686;2023-02-28T02:56:23;96502.19;;;-0.33;67.54
57594;BME280;43423;46.510;6.686;2023-02-28T02:58:51;96501.69;;;-0.24;66.91
57594;BME280;43423;46.510;6.686;2023-02-28T03:01:21;96497.63;;;-0.40;67.78
57594;BME280;43423;46.510;6.686;2023-02-28T03:04:05;96496.88;;;-0.40;67.86
57594;BME280;43423;46.510;6.686;2023-02-28T03:06:33;96497.19;;;-0.35;67.48
57594;BME280;43423;46.510;6.686;2023-02-28T03:08:59;96493.72;;;-0.35;67.85
57594;BME280;43423;46.510;6.686;2023-02-28T03:11:25;96498.41;;;-0.39;67.94
57594;BME280;43423;46.510;6.686;2023-02-28T03:14:24;96493.59;;;-0.55;68.37
57594;BME280;43423;46.510;6.686;2023-02-28T03:23:13;96490.91;;;-0.55;68.80
57594;BME280;43423;46.510;6.686;2023-02-28T03:25:56;96497.00;;;-0.51;68.71
57594;BME280;43423;46.510;6.686;2023-02-28T03:28:32;96502.25;;;-0.37;68.19
57594;BME280;43423;46.510;6.686;2023-02-28T03:31:19;96497.91;;;-0.61;68.62
57594;BME280;43423;46.510;6.686;2023-02-28T03:33:51;96495.41;;;-0.48;68.56
57594;BME280;43423;46.510;6.686;2023-02-28T03:36:25;96490.78;;;-0.48;68.20
57594;BME280;43423;46.510;6.686;2023-02-28T03:38:57;96490.91;;;-0.55;68.32
57594;BME280;43423;46.510;6.686;2023-02-28T03:41:30;96502.25;;;-0.37;68.19
57594;BME280;43423;46.510;6.686;2023-02-28T03:44:01;96500.44;;;-0.47;67.87
57594;BME280;43423;46.510;6.686;2023-02-28T03:46:32;96500.59;;;-0.61;68.57
57594;BME280;43423;46.510;6.686;2023-02-28T03:49:13;96496.16;;;-0.44;68.00
57594;BME280;43423;46.510;6.686;2023-02-28T03:51:40;96499.44;;;-0.60;68.71
57594;BME280;43423;46.510;6.686;2023-02-28T03:54:25;96492.81;;;-0.56;68.91
57594;BME280;43423;46.510;6.686;2023-02-28T03:57:12;96498.19;;;-0.56;68.71
57594;BME280;43423;46.510;6.686;2023-02-28T03:59:47;96494.22;;;-0.44;68.64
57594;BME280;43423;46.510;6.686;2023-02-28T04:02:16;96500.44;;;-0.47;68.19
57594;BME280;43423;46.510;6.686;2023-02-28T04:04:41;96499.09;;;-0.32;68.26
57594;BME280;43423;46.510;6.686;2023-02-28T04:07:14;96499.03;;;-0.28;67.81
57594;BME280;43423;46.510;6.686;2023-02-28T04:09:40;96495.56;;;-0.29;68.16
57594;BME280;43423;46.510;6.686;2023-02-28T04:12:06;96490.66;;;-0.37;68.04
57594;BME280;43423;46.510;6.686;2023-02-28T04:14:32;96492.19;;;-0.36;68.37
57594;BME280;43423;46.510;6.686;2023-02-28T04:16:58;96500.31;;;-0.40;68.71
57594;BME280;43423;46.510;6.686;2023-02-28T04:19:24;96502.59;;;-0.35;68.02
57594;BME280;43423;46.510;6.686;2023-02-28T04:21:51;96502.00;;;-0.49;68.55
57594;BME280;43423;46.510;6.686;2023-02-28T04:24:21;96501.31;;;-0.57;69.15
57594;BME280;43423;46.510;6.686;2023-02-28T04:26:49;96510.16;;;-0.53;68.88
57594;BME280;43423;46.510;6.686;2023-02-28T04:29:22;96502.53;;;-0.62;69.07
57594;BME280;43423;46.510;6.686;2023-02-28T04:31:48;96514.06;;;-0.58;69.11
57594;BME280;43423;46.510;6.686;2023-02-28T04:34:14;96507.25;;;-0.69;69.40
57594;BME280;43423;46.510;6.686;2023-02-28T04:36:40;96515.28;;;-0.62;69.40
57594;BME280;43423;46.510;6.686;2023-02-28T04:39:05;96509.00;;;-0.56;68.72
57594;BME280;43423;46.510;6.686;2023-02-28T04:41:31;96511.41;;;-0.61;69.00
57594;BME280;43423;46.510;6.686;2023-02-28T04:43:56;96511.47;;;-0.68;69.34
57594;BME280;43423;46.510;6.686;2023-02-28T04:46:22;96510.94;;;-0.56;68.97
57594;BME280;43423;46.510;6.686;2023-02-28T04:48:48;96509.19;;;-0.70;69.31
57594;BME280;43423;46.510;6.686;2023-02-28T04:51:16;96513.75;;;-0.63;69.29
57594;BME280;43423;46.510;6.686;2023-02-28T04:53:42;96511.34;;;-0.58;68.58
57594;BME280;43423;46.510;6.686;2023-02-28T04:56:14;96529.50;;;-0.58;69.23
57594;BME280;43423;46.510;6.686;2023-02-28T04:58:40;96522.06;;;-0.47;68.71
57594;BME280;43423;46.510;6.686;2023-02-28T05:03:40;96527.28;;;-0.67;68.96
57594;BME280;43423;46.510;6.686;2023-02-28T05:06:07;96527.53;;;-0.54;69.13
57594;BME280;43423;46.510;6.686;2023-02-28T05:08:33;96537.84;;;-0.45;68.76
57594;BME280;43423;46.510;6.686;2023-02-28T05:10:59;96533.25;;;-0.48;68.24
57594;BME280;43423;46.510;6.686;2023-02-28T05:13:27;96528.81;;;-0.66;68.91
57594;BME280;43423;46.510;6.686;2023-02-28T05:15:52;96531.88;;;-0.64;69.19
57594;BME280;43423;46.510;6.686;2023-02-28T05:18:18;96530.38;;;-0.68;69.50
57594;BME280;43423;46.510;6.686;2023-02-28T05:20:44;96530.47;;;-0.75;69.49
57594;BME280;43423;46.510;6.686;2023-02-28T05:23:13;96538.28;;;-0.88;69.29
57594;BME280;43423;46.510;6.686;2023-02-28T05:25:40;96542.97;;;-0.92;69.75
57594;BME280;43423;46.510;6.686;2023-02-28T05:28:06;96535.94;;;-0.82;69.52
57594;BME280;43423;46.510;6.686;2023-02-28T05:30:32;96532.91;;;-0.88;69.82
57594;BME280;43423;46.510;6.686;2023-02-28T05:32:58;96539.81;;;-0.83;69.96
57594;BME280;43423;46.510;6.686;2023-02-28T05:35:23;96541.75;;;-0.84;69.78
57594;BME280;43423;46.510;6.686;2023-02-28T05:37:49;96535.13;;;-0.79;69.66
57594;BME280;43423;46.510;6.686;2023-02-28T05:40:15;96539.38;;;-0.78;69.46
57594;BME280;43423;46.510;6.686;2023-02-28T05:42:41;96536.75;;;-0.89;69.78
57594;BME280;43423;46.510;6.686;2023-02-28T05:45:07;96539.00;;;-0.80;69.77
57594;BME280;43423;46.510;6.686;2023-02-28T05:47:34;96540.97;;;-0.85;69.75
57594;BME280;43423;46.510;6.686;2023-02-28T05:49:59;96543.56;;;-0.74;69.47
57594;BME280;43423;46.510;6.686;2023-02-28T05:52:25;96539.66;;;-0.69;69.08
57594;BME280;43423;46.510;6.686;2023-02-28T05:54:51;96542.34;;;-0.69;69.21
57594;BME280;43423;46.510;6.686;2023-02-28T05:57:17;96545.00;;;-0.62;69.15
57594;BME280;43423;46.510;6.686;2023-02-28T05:59:42;96534.53;;;-0.60;68.97
57594;BME280;43423;46.510;6.686;2023-02-28T06:02:13;96539.53;;;-0.59;68.89
57594;BME280;43423;46.510;6.686;2023-02-28T06:04:39;96535.72;;;-0.61;68.58
57594;BME280;43423;46.510;6.686;2023-02-28T06:07:06;96537.13;;;-0.49;69.04
57594;BME280;43423;46.510;6.686;2023-02-28T06:09:32;96537.88;;;-0.49;69.20
57594;BME280;43423;46.510;6.686;2023-02-28T06:11:59;96541.59;;;-0.36;68.71
57594;BME280;43423;46.510;6.686;2023-02-28T06:14:25;96542.34;;;-0.35;68.14
57594;BME280;43423;46.510;6.686;2023-02-28T06:16:51;96547.84;;;-0.42;68.45
57594;BME280;43423;46.510;6.686;2023-02-28T06:19:17;96559.47;;;-0.45;67.96
57594;BME280;43423;46.510;6.686;2023-02-28T06:21:43;96551.84;;;-0.54;68.86
57594;BME280;43423;46.510;6.686;2023-02-28T06:24:09;96556.16;;;-0.64;69.11
57594;BME280;43423;46.510;6.686;2023-02-28T06:26:35;96554.47;;;-0.47;68.80
57594;BME280;43423;46.510;6.686;2023-02-28T06:29:00;96557.28;;;-0.58;68.89
57594;BME280;43423;46.510;6.686;2023-02-28T06:31:26;96559.91;;;-0.50;68.47
57594;BME280;43423;46.510;6.686;2023-02-28T06:33:54;96565.97;;;-0.43;67.94
57594;BME280;43423;46.510;6.686;2023-02-28T06:36:20;96573.81;;;-0.56;68.95
57594;BME280;43423;46.510;6.686;2023-02-28T06:38:46;96572.28;;;-0.57;68.56
57594;BME280;43423;46.510;6.686;2023-02-28T06:41:17;96578.66;;;-0.36;68.71
57594;BME280;43423;46.510;6.686;2023-02-28T06:43:43;96580.44;;;-0.26;68.22
57594;BME280;43423;46.510;6.686;2023-02-28T06:46:12;96588.47;;;-0.15;67.51
57594;BME280;43423;46.510;6.686;2023-02-28T06:48:39;96586.19;;;-0.20;67.56
57594;BME280;43423;46.510;6.686;2023-02-28T06:51:08;96582.16;;;-0.05;67.62
57594;BME280;43423;46.510;6.686;2023-02-28T06:53:34;96580.06;;;0.06;67.99
57594;BME280;43423;46.510;6.686;2023-02-28T06:56:03;96584.28;;;0.07;67.20
57594;BME280;43423;46.510;6.686;2023-02-28T06:58:29;96581.88;;;0.16;67.31
57594;BME280;43423;46.510;6.686;2023-02-28T07:00:54;96585.63;;;0.22;66.87
57594;BME280;43423;46.510;6.686;2023-02-28T07:03:20;96588.09;;;0.13;67.07
57594;BME280;43423;46.510;6.686;2023-02-28T07:05:46;96583.44;;;0.14;66.62
57594;BME280;43423;46.510;6.686;2023-02-28T07:08:11;96585.38;;;0.13;66.52
57594;BME280;43423;46.510;6.686;2023-02-28T07:10:37;96576.66;;;0.02;67.21
57594;BME280;43423;46.510;6.686;2023-02-28T07:13:04;96589.84;;;-0.04;66.73
57594;BME280;43423;46.510;6.686;2023-02-28T07:15:30;96586.03;;;-0.06;67.41
57594;BME280;43423;46.510;6.686;2023-02-28T07:17:56;96594.41;;;0.03;67.61
57594;BME280;43423;46.510;6.686;2023-02-28T07:20:23;96591.97;;;0.12;68.28
57594;BME280;43423;46.510;6.686;2023-02-28T07:22:49;96583.75;;;0.19;67.65
57594;BME280;43423;46.510;6.686;2023-02-28T07:25:24;96588.09;;;0.13;66.75
57594;BME280;43423;46.510;6.686;2023-02-28T07:27:50;96593.50;;;0.13;66.84
57594;BME280;43423;46.510;6.686;2023-02-28T07:30:16;96587.06;;;0.04;66.71
57594;BME280;43423;46.510;6.686;2023-02-28T07:32:42;96588.25;;;-0.01;67.06
57594;BME280;43423;46.510;6.686;2023-02-28T07:35:08;96594.56;;;-0.11;67.95
57594;BME280;43423;46.510;6.686;2023-02-28T07:37:33;96588.16;;;0.06;67.22
57594;BME280;43423;46.510;6.686;2023-02-28T07:40:06;96603.63;;;0.06;67.17
57594;BME280;43423;46.510;6.686;2023-02-28T07:42:37;96599.88;;;-0.04;67.13
57594;BME280;43423;46.510;6.686;2023-02-28T07:45:04;96596.19;;;-0.17;67.17
57594;BME280;43423;46.510;6.686;2023-02-28T07:47:30;96586.53;;;-0.18;68.23
57594;BME280;43423;46.510;6.686;2023-02-28T07:49:56;96592.28;;;-0.13;67.75
57594;BME280;43423;46.510;6.686;2023-02-28T07:52:22;96596.06;;;-0.07;67.61
57594;BME280;43423;46.510;6.686;2023-02-28T07:54:49;96592.13;;;-0.02;67.67
57594;BME280;43423;46.510;6.686;2023-02-28T07:57:15;96595.31;;;-0.07;67.37
57594;BME280;43423;46.510;6.686;2023-02-28T07:59:41;96591.84;;;-0.08;67.51
57594;BME280;43423;46.510;6.686;2023-02-28T08:02:06;96591.63;;;0.07;67.09
57594;BME280;43423;46.510;6.686;2023-02-28T08:04:35;96588.44;;;0.15;67.04
57594;BME280;43423;46.510;6.686;2023-02-28T08:07:01;96597.97;;;0.23;67.04
57594;BME280;43423;46.510;6.686;2023-02-28T08:09:26;96599.81;;;0.34;66.64
57594;BME280;43423;46.510;6.686;2023-02-28T08:11:52;96595.56;;;0.33;66.19
57594;BME280;43423;46.510;6.686;2023-02-28T08:14:18;96600.16;;;0.36;66.57
57594;BME280;43423;46.510;6.686;2023-02-28T08:16:43;96596.50;;;0.19;66.77
57594;BME280;43423;46.510;6.686;2023-02-28T08:19:09;96600.56;;;0.34;66.06
57594;BME280;43423;46.510;6.686;2023-02-28T08:21:34;96604.19;;;0.24;66.78
57594;BME280;43423;46.510;6.686;2023-02-28T08:24:00;96608.09;;;0.19;66.88
57594;BME280;43423;46.510;6.686;2023-02-28T08:26:26;96607.78;;;0.14;66.64
57594;BME280;43423;46.510;6.686;2023-02-28T08:28:51;96604.88;;;0.28;67.49
57594;BME280;43423;46.510;6.686;2023-02-28T08:31:18;96601.75;;;0.33;67.82
57594;BME280;43423;46.510;6.686;2023-02-28T08:33:44;96610.53;;;0.41;67.08
57594;BME280;43423;46.510;6.686;2023-02-28T08:36:10;96600.97;;;0.33;66.54
57594;BME280;43423;46.510;6.686;2023-02-28T08:38:37;96610.22;;;0.35;67.26
57594;BME280;43423;46.510;6.686;2023-02-28T08:41:06;96613.22;;;0.41;66.42
57594;BME280;43423;46.510;6.686;2023-02-28T08:43:33;96610.44;;;0.48;66.91
57594;BME280;43423;46.510;6.686;2023-02-28T08:45:59;96614.56;;;0.56;66.03
57594;BME280;43423;46.510;6.686;2023-02-28T08:48:26;96621.78;;;0.63;65.90
57594;BME280;43423;46.510;6.686;2023-02-28T08:51:15;96617.28;;;0.56;65.86
57594;BME280;43423;46.510;6.686;2023-02-28T08:53:44;96618.38;;;0.59;65.59
57594;BME280;43423;46.510;6.686;2023-02-28T08:56:12;96627.41;;;0.75;66.12
57594;BME280;43423;46.510;6.686;2023-02-28T08:58:38;96625.06;;;0.77;65.54
57594;BME280;43423;46.510;6.686;2023-02-28T09:01:13;96620.72;;;0.83;65.82
57594;BME280;43423;46.510;6.686;2023-02-28T09:03:39;96626.38;;;0.93;65.00
57594;BME280;43423;46.510;6.686;2023-02-28T09:06:06;96639.88;;;0.96;65.26
57594;BME280;43423;46.510;6.686;2023-02-28T09:08:31;96634.03;;;0.98;64.62
57594;BME280;43423;46.510;6.686;2023-02-28T09:10:57;96637.72;;;1.11;64.02
57594;BME280;43423;46.510;6.686;2023-02-28T09:13:26;96631.81;;;1.16;65.51
57594;BME280;43423;46.510;6.686;2023-02-28T09:15:53;96637.75;;;1.07;64.44
57594;BME280;43423;46.510;6.686;2023-02-28T09:18:18;96638.47;;;1.11;64.71
57594;BME280;43423;46.510;6.686;2023-02-28T09:20:44;96635.03;;;1.07;64.43
57594;BME280;43423;46.510;6.686;2023-02-28T09:23:12;96636.03;;;1.17;64.60
57594;BME280;43423;46.510;6.686;2023-02-28T09:25:40;96637.13;;;1.23;63.81
57594;BME280;43423;46.510;6.686;2023-02-28T09:28:09;96633.22;;;1.24;64.06
57594;BME280;43423;46.510;6.686;2023-02-28T09:30:35;96626.81;;;1.38;63.79
57594;BME280;43423;46.510;6.686;2023-02-28T09:33:00;96623.13;;;1.48;63.64
57594;BME280;43423;46.510;6.686;2023-02-28T09:35:26;96630.84;;;1.50;63.01
57594;BME280;43423;46.510;6.686;2023-02-28T09:37:52;96624.28;;;1.51;63.76
57594;BME280;43423;46.510;6.686;2023-02-28T09:40:22;96623.97;;;1.45;63.05
57594;BME280;43423;46.510;6.686;2023-02-28T09:42:49;96630.84;;;1.50;63.26
57594;BME280;43423;46.510;6.686;2023-02-28T09:45:26;96640.25;;;1.65;63.15
57594;BME280;43423;46.510;6.686;2023-02-28T09:47:56;96636.03;;;1.64;62.87
57594;BME280;43423;46.510;6.686;2023-02-28T09:50:31;96636.81;;;1.84;62.66
57594;BME280;43423;46.510;6.686;2023-02-28T09:53:02;96640.44;;;1.98;61.71
57594;BME280;43423;46.510;6.686;2023-02-28T09:55:54;96647.72;;;2.20;62.21
57594;BME280;43423;46.510;6.686;2023-02-28T09:58:24;96644.63;;;2.22;61.82
57594;BME280;43423;46.510;6.686;2023-02-28T10:01:00;96634.50;;;2.42;61.24
57594;BME280;43423;46.510;6.686;2023-02-28T10:03:32;96634.91;;;2.61;60.80
57594;BME280;43423;46.510;6.686;2023-02-28T10:08:38;96645.03;;;3.42;59.38
57594;BME280;43423;46.510;6.686;2023-02-28T10:11:12;96646.53;;;4.04;58.75
57594;BME280;43423;46.510;6.686;2023-02-28T10:13:49;96646.09;;;4.18;57.20
57594;BME280;43423;46.510;6.686;2023-02-28T10:16:21;96646.25;;;4.28;56.80
57594;BME280;43423;46.510;6.686;2023-02-28T10:23:48;96648.22;;;4.40;55.82
57594;BME280;43423;46.510;6.686;2023-02-28T10:26:17;96650.22;;;4.52;56.45
57594;BME280;43423;46.510;6.686;2023-02-28T10:28:42;96657.84;;;4.44;54.93
57594;BME280;43423;46.510;6.686;2023-02-28T10:31:18;96653.38;;;4.09;54.88
57594;BME280;43423;46.510;6.686;2023-02-28T10:33:44;96660.06;;;3.91;55.22
57594;BME280;43423;46.510;6.686;2023-02-28T10:36:18;96662.03;;;3.91;56.42
57594;BME280;43423;46.510;6.686;2023-02-28T10:38:45;96665.25;;;3.86;55.89
57594;BME280;43423;46.510;6.686;2023-02-28T10:41:16;96660.69;;;3.83;56.35
57594;BME280;43423;46.510;6.686;2023-02-28T10:43:43;96657.59;;;3.97;55.52
57594;BME280;43423;46.510;6.686;2023-02-28T10:46:15;96659.06;;;3.85;56.17
57594;BME280;43423;46.510;6.686;2023-02-28T10:49:13;96655.44;;;4.05;54.85
57594;BME280;43423;46.510;6.686;2023-02-28T10:51:40;96663.25;;;4.32;55.95
57594;BME280;43423;46.510;6.686;2023-02-28T10:54:15;96665.56;;;4.46;54.66
57594;BME280;43423;46.510;6.686;2023-02-28T10:56:42;96662.66;;;4.53;54.42
57594;BME280;43423;46.510;6.686;2023-02-28T11:01:40;96673.16;;;4.93;54.38
57594;BME280;43423;46.510;6.686;2023-02-28T11:07:20;96666.28;;;5.01;53.84
57594;BME280;43423;46.510;6.686;2023-02-28T11:09:50;96672.47;;;4.89;53.92
57594;BME280;43423;46.510;6.686;2023-02-28T11:12:34;96664.56;;;4.40;53.02
57594;BME280;43423;46.510;6.686;2023-02-28T11:15:04;96670.94;;;4.62;55.39
57594;BME280;43423;46.510;6.686;2023-02-28T11:17:32;96655.88;;;4.45;57.88
57594;BME280;43423;46.510;6.686;2023-02-28T11:20:10;96657.81;;;4.32;57.96
57594;BME280;43423;46.510;6.686;2023-02-28T11:22:46;96659.25;;;4.07;57.83
57594;BME280;43423;46.510;6.686;2023-02-28T11:25:22;96658.16;;;3.76;58.01
57594;BME280;43423;46.510;6.686;2023-02-28T11:27:51;96659.69;;;3.60;59.19
57594;BME280;43423;46.510;6.686;2023-02-28T11:30:37;96657.34;;;3.30;59.53
57594;BME280;43423;46.510;6.686;2023-02-28T11:35:48;96649.88;;;3.18;60.89
57594;BME280;43423;46.510;6.686;2023-02-28T11:38:15;96646.13;;;3.12;60.37
57594;BME280;43423;46.510;6.686;2023-02-28T11:40:50;96650.06;;;3.27;60.48
57594;BME280;43423;46.510;6.686;2023-02-28T11:43:30;96653.19;;;3.42;60.22
57594;BME280;43423;46.510;6.686;2023-02-28T11:46:33;96643.31;;;3.64;60.17
57594;BME280;43423;46.510;6.686;2023-02-28T11:49:10;96638.31;;;3.91;59.25
57594;BME280;43423;46.510;6.686;2023-02-28T11:51:50;96635.13;;;3.80;59.01
57594;BME280;43423;46.510;6.686;2023-02-28T11:57:24;96640.31;;;4.04;59.84
57594;BME280;43423;46.510;6.686;2023-02-28T12:00:03;96633.94;;;3.94;59.92
57594;BME280;43423;46.510;6.686;2023-02-28T12:05:18;96632.16;;;4.16;58.41
57594;BME280;43423;46.510;6.686;2023-02-28T12:07:59;96632.50;;;4.18;58.69
57594;BME280;43423;46.510;6.686;2023-02-28T12:11:01;96635.56;;;4.20;58.26
57594;BME280;43423;46.510;6.686;2023-02-28T12:13:26;96631.84;;;4.14;57.09
57594;BME280;43423;46.510;6.686;2023-02-28T12:27:52;96628.03;;;4.66;57.46
57594;BME280;43423;46.510;6.686;2023-02-28T12:30:33;96633.00;;;4.42;56.91
57594;BME280;43423;46.510;6.686;2023-02-28T12:33:06;96623.22;;;4.45;56.94
57594;BME280;43423;46.510;6.686;2023-02-28T12:35:35;96619.06;;;4.53;56.21
57594;BME280;43423;46.510;6.686;2023-02-28T12:38:10;96623.97;;;4.45;56.84
57594;BME280;43423;46.510;6.686;2023-02-28T12:40:50;96622.97;;;4.27;56.72
57594;BME280;43423;46.510;6.686;2023-02-28T12:43:18;96611.28;;;4.26;57.61
57594;BME280;43423;46.510;6.686;2023-02-28T12:48:31;96611.78;;;4.88;56.08
57594;BME280;43423;46.510;6.686;2023-02-28T12:50:58;96600.56;;;4.86;55.40
57594;BME280;43423;46.510;6.686;2023-02-28T12:56:15;96611.47;;;5.81;53.95
57594;BME280;43423;46.510;6.686;2023-02-28T12:58:55;96606.63;;;5.63;54.18
57594;BME280;43423;46.510;6.686;2023-02-28T13:09:39;96612.34;;;5.43;54.96
57594;BME280;43423;46.510;6.686;2023-02-28T13:12:15;96609.75;;;5.74;54.52
57594;BME280;43423;46.510;6.686;2023-02-28T13:14:42;96601.53;;;5.87;54.53
57594;BME280;43423;46.510;6.686;2023-02-28T13:22:45;96603.16;;;5.84;54.50
57594;BME280;43423;46.510;6.686;2023-02-28T13:28:12;96594.19;;;5.62;52.83
57594;BME280;43423;46.510;6.686;2023-02-28T13:33:28;96604.03;;;5.81;51.42
57594;BME280;43423;46.510;6.686;2023-02-28T13:38:43;96597.63;;;6.10;51.32
57594;BME280;43423;46.510;6.686;2023-02-28T13:55:01;96602.94;;;5.57;52.17
57594;BME280;43423;46.510;6.686;2023-02-28T14:00:23;96607.13;;;5.36;52.50
57594;BME280;43423;46.510;6.686;2023-02-28T14:06:25;96607.97;;;4.86;53.92
57594;BME280;43423;46.510;6.686;2023-02-28T14:11:38;96613.00;;;4.74;54.49
57594;BME280;43423;46.510;6.686;2023-02-28T14:14:05;96621.16;;;4.74;54.98
57594;BME280;43423;46.510;6.686;2023-02-28T14:16:41;96611.03;;;4.75;55.04
57594;BME280;43423;46.510;6.686;2023-02-28T14:19:12;96612.97;;;4.49;54.72
57594;BME280;43423;46.510;6.686;2023-02-28T14:32:33;96604.91;;;4.45;55.46
57594;BME280;43423;46.510;6.686;2023-02-28T14:35:22;96614.16;;;4.48;54.98
57594;BME280;43423;46.510;6.686;2023-02-28T14:37:53;96605.63;;;4.20;56.25
57594;BME280;43423;46.510;6.686;2023-02-28T14:40:26;96603.91;;;4.27;55.61
57594;BME280;43423;46.510;6.686;2023-02-28T14:43:04;96597.22;;;4.15;55.42
57594;BME280;43423;46.510;6.686;2023-02-28T14:45:32;96602.78;;;4.24;55.67
57594;BME280;43423;46.510;6.686;2023-02-28T14:47:59;96603.34;;;4.32;56.31
57594;BME280;43423;46.510;6.686;2023-02-28T14:50:30;96600.00;;;4.53;56.30
57594;BME280;43423;46.510;6.686;2023-02-28T14:52:57;96603.72;;;4.85;55.13
57594;BME280;43423;46.510;6.686;2023-02-28T14:55:26;96602.19;;;4.96;54.47
57594;BME280;43423;46.510;6.686;2023-02-28T14:57:58;96601.22;;;4.90;54.87
57594;BME280;43423;46.510;6.686;2023-02-28T15:00:29;96609.81;;;4.89;54.64
57594;BME280;43423;46.510;6.686;2023-02-28T15:02:56;96607.53;;;5.00;54.74
57594;BME280;43423;46.510;6.686;2023-02-28T15:05:28;96601.56;;;4.67;54.64
57594;BME280;43423;46.510;6.686;2023-02-28T15:08:12;96605.00;;;4.42;55.04
57594;BME280;43423;46.510;6.686;2023-02-28T15:10:43;96606.19;;;4.41;55.43
57594;BME280;43423;46.510;6.686;2023-02-28T15:13:14;96607.50;;;4.49;54.68
57594;BME280;43423;46.510;6.686;2023-02-28T15:15:56;96603.75;;;4.17;55.02
57594;BME280;43423;46.510;6.686;2023-02-28T15:21:07;96600.19;;;4.20;54.87
57594;BME280;43423;46.510;6.686;2023-02-28T15:23:35;96597.44;;;4.08;55.28